AMX80 VQPR-VNKT
Flight info
| Callsign | AMX80 |
|---|---|
| Flight time | 0h 48m |
| Altitude | 32000 |
| Route | PRO G348 KIMTI KMTI1G |
| Aircraft | B38M/M-SDE1FGHILORVWXY/HB1 |
Departure
| Time | 2025-12-29 15:35 |
|---|---|
| Airport | Paro International Airport (VQPR) |
Arrival
| Time | 2025-12-29 16:23 |
|---|---|
| Airport | Tribhuvan International Airport (VNKT) |
| Time | Latitude | Longitude | Altitude | Speed | Heading |
|---|---|---|---|---|---|
| 2025-12-29 15:30 | 27.39619 | 89.42919 | 7371 ft | 0 kts | 330° |
| 2025-12-29 15:33 | 27.40016 | 89.42666 | 7368 ft | 98 kts | 330° |
| 2025-12-29 15:34 | 27.41864 | 89.41523 | 7624 ft | 180 kts | 346° |
| 2025-12-29 15:34 | 27.45964 | 89.42604 | 8888 ft | 247 kts | 14° |
| 2025-12-29 15:35 | 27.49385 | 89.43633 | 10561 ft | 265 kts | 19° |
| 2025-12-29 15:35 | 27.51150 | 89.44335 | 11414 ft | 267 kts | 17° |
| 2025-12-29 15:36 | 27.54831 | 89.44515 | 13312 ft | 268 kts | 346° |
| 2025-12-29 15:36 | 27.58444 | 89.43086 | 14701 ft | 283 kts | 327° |
| 2025-12-29 15:37 | 27.60675 | 89.39478 | 16099 ft | 293 kts | 289° |
| 2025-12-29 15:37 | 27.62135 | 89.35118 | 17527 ft | 304 kts | 273° |
| 2025-12-29 15:38 | 27.61052 | 89.30462 | 18781 ft | 329 kts | 236° |
| 2025-12-29 15:38 | 27.55921 | 89.24687 | 19758 ft | 366 kts | 251° |
| 2025-12-29 15:39 | 27.55529 | 89.21867 | 20236 ft | 367 kts | 274° |
| 2025-12-29 15:39 | 27.55608 | 89.16066 | 21319 ft | 378 kts | 268° |
| 2025-12-29 15:40 | 27.55153 | 89.10139 | 22646 ft | 382 kts | 265° |
| 2025-12-29 15:40 | 27.54514 | 89.04126 | 23843 ft | 388 kts | 264° |
| 2025-12-29 15:41 | 27.53820 | 88.98105 | 24892 ft | 391 kts | 263° |
| 2025-12-29 15:43 | 27.50512 | 88.70256 | 29172 ft | 406 kts | 263° |
| 2025-12-29 15:45 | 27.47838 | 88.48049 | 32079 ft | 404 kts | 263° |
| 2025-12-29 15:47 | 27.44684 | 88.22294 | 32068 ft | 417 kts | 263° |
| 2025-12-29 15:49 | 27.41484 | 87.96506 | 32084 ft | 415 kts | 264° |
| 2025-12-29 15:51 | 27.38250 | 87.70830 | 32092 ft | 414 kts | 264° |
| 2025-12-29 15:53 | 27.34965 | 87.45149 | 32092 ft | 415 kts | 264° |
| 2025-12-29 15:55 | 27.31823 | 87.20228 | 31635 ft | 379 kts | 273° |
| 2025-12-29 15:57 | 27.36237 | 86.96200 | 31466 ft | 395 kts | 282° |
| 2025-12-29 15:59 | 27.40945 | 86.72085 | 29436 ft | 398 kts | 283° |
| 2025-12-29 16:01 | 27.45699 | 86.47493 | 26119 ft | 408 kts | 283° |
| 2025-12-29 16:02 | 27.47887 | 86.36090 | 24729 ft | 405 kts | 283° |
| 2025-12-29 16:02 | 27.49637 | 86.26851 | 23626 ft | 399 kts | 280° |
| 2025-12-29 16:03 | 27.49987 | 86.23756 | 23190 ft | 397 kts | 278° |
| 2025-12-29 16:03 | 27.50701 | 86.17607 | 22348 ft | 393 kts | 279° |
| 2025-12-29 16:04 | 27.51426 | 86.11567 | 21539 ft | 388 kts | 279° |
| 2025-12-29 16:04 | 27.52139 | 86.05646 | 20747 ft | 372 kts | 279° |
| 2025-12-29 16:05 | 27.52817 | 85.99991 | 19893 ft | 355 kts | 279° |
| 2025-12-29 16:05 | 27.53144 | 85.97262 | 19501 ft | 348 kts | 279° |
| 2025-12-29 16:06 | 27.54091 | 85.89333 | 18166 ft | 335 kts | 279° |
| 2025-12-29 16:06 | 27.54735 | 85.84295 | 16830 ft | 317 kts | 286° |
| 2025-12-29 16:07 | 27.56065 | 85.79763 | 16046 ft | 291 kts | 288° |
| 2025-12-29 16:07 | 27.57271 | 85.75444 | 15196 ft | 287 kts | 287° |
| 2025-12-29 16:08 | 27.57205 | 85.71019 | 14339 ft | 291 kts | 253° |
| 2025-12-29 16:08 | 27.55330 | 85.66965 | 13455 ft | 293 kts | 245° |
| 2025-12-29 16:09 | 27.53322 | 85.62960 | 12516 ft | 293 kts | 244° |
| 2025-12-29 16:09 | 27.52308 | 85.60968 | 12150 ft | 289 kts | 244° |
| 2025-12-29 16:09 | 27.50337 | 85.57131 | 11852 ft | 282 kts | 244° |
| 2025-12-29 16:10 | 27.47408 | 85.51431 | 11339 ft | 277 kts | 244° |
| 2025-12-29 16:11 | 27.45463 | 85.47651 | 10911 ft | 280 kts | 244° |
| 2025-12-29 16:11 | 27.43519 | 85.43871 | 10433 ft | 275 kts | 244° |
| 2025-12-29 16:12 | 27.41630 | 85.40212 | 9988 ft | 263 kts | 244° |
| 2025-12-29 16:12 | 27.39864 | 85.36791 | 9645 ft | 248 kts | 244° |
| 2025-12-29 16:13 | 27.38130 | 85.33431 | 9192 ft | 247 kts | 244° |
| 2025-12-29 16:13 | 27.36398 | 85.30080 | 8724 ft | 247 kts | 243° |
| 2025-12-29 16:13 | 27.35533 | 85.28405 | 8715 ft | 248 kts | 243° |
| 2025-12-29 16:14 | 27.35344 | 85.23154 | 8685 ft | 240 kts | 307° |
| 2025-12-29 16:15 | 27.39930 | 85.22008 | 8720 ft | 245 kts | 23° |
| 2025-12-29 16:15 | 27.42714 | 85.23643 | 8747 ft | 213 kts | 17° |
| 2025-12-29 16:16 | 27.44079 | 85.24344 | 8740 ft | 215 kts | 19° |
| 2025-12-29 16:16 | 27.46895 | 85.25065 | 8703 ft | 206 kts | 349° |
| 2025-12-29 16:17 | 27.49497 | 85.24277 | 8657 ft | 186 kts | 338° |
| 2025-12-29 16:17 | 27.51999 | 85.23752 | 8609 ft | 181 kts | 354° |
| 2025-12-29 16:17 | 27.53255 | 85.23861 | 8239 ft | 180 kts | 5° |
| 2025-12-29 16:18 | 27.56651 | 85.25495 | 6766 ft | 171 kts | 41° |
| 2025-12-29 16:19 | 27.58181 | 85.27341 | 6044 ft | 156 kts | 48° |
| 2025-12-29 16:19 | 27.59709 | 85.29057 | 5508 ft | 153 kts | 43° |
| 2025-12-29 16:20 | 27.61344 | 85.30631 | 5521 ft | 155 kts | 42° |
| 2025-12-29 16:20 | 27.63001 | 85.32148 | 5336 ft | 152 kts | 40° |
| 2025-12-29 16:21 | 27.64695 | 85.33689 | 5238 ft | 167 kts | 26° |
| 2025-12-29 16:21 | 27.66846 | 85.34614 | 4744 ft | 156 kts | 22° |
| 2025-12-29 16:21 | 27.67787 | 85.35064 | 4489 ft | 139 kts | 20° |
| 2025-12-29 16:22 | 27.69581 | 85.35877 | 4399 ft | 58 kts | 21° |
| 2025-12-29 16:23 | 27.69948 | 85.35934 | 4400 ft | 11 kts | 3° |
| 2025-12-29 16:23 | 27.70013 | 85.35915 | 4400 ft | 9 kts | 302° |
| 2025-12-29 16:24 | 27.70031 | 85.35856 | 4400 ft | 0 kts | 292° |